Terminal Aerodrome Forecast
Issued by NWS Spokane, WA

Home | Current Version | Previous Version | Text Only | Print | Product List | Glossary On
Versions: 1 2 3 4 5 6 7 8 9 10 11 12 13 14 15 16 17 18 19
000
FTUS46 KOTX 210539
TAFLWS
TAF
KLWS 210539Z 2106/2206 VRB03KT P6SM FEW050 OVC080
     FM210900 10005KT P6SM SCT080 BKN200
     FM211500 11008KT P6SM SCT100 BKN200
     FM220000 14013KT P6SM -RA BKN050 OVC100
     FM220200 16012KT P6SM -RA OVC040=

USA.gov is the U.S. government's official web portal to all federal, state and local government web resources and services.